sensor_id;sensor_type;location;lat;lon;timestamp;P1;durP1;ratioP1;P2;durP2;ratioP2
26201;SDS011;13944;28.562;77.188;2022-10-15T00:00:05;186.68;;;121.97;;
26201;SDS011;13944;28.562;77.188;2022-10-15T00:02:31;181.35;;;121.03;;
26201;SDS011;13944;28.562;77.188;2022-10-15T00:04:58;182.25;;;120.32;;
26201;SDS011;13944;28.562;77.188;2022-10-15T00:07:24;174.98;;;120.45;;
26201;SDS011;13944;28.562;77.188;2022-10-15T00:09:51;170.98;;;119.47;;
26201;SDS011;13944;28.562;77.188;2022-10-15T00:12:17;183.07;;;121.55;;
26201;SDS011;13944;28.562;77.188;2022-10-15T00:14:44;173.40;;;119.85;;
26201;SDS011;13944;28.562;77.188;2022-10-15T00:17:10;172.80;;;120.85;;
26201;SDS011;13944;28.562;77.188;2022-10-15T00:19:37;174.80;;;120.40;;
26201;SDS011;13944;28.562;77.188;2022-10-15T00:22:03;176.05;;;119.80;;
26201;SDS011;13944;28.562;77.188;2022-10-15T00:24:30;184.80;;;120.82;;
26201;SDS011;13944;28.562;77.188;2022-10-15T00:26:57;171.70;;;117.90;;
26201;SDS011;13944;28.562;77.188;2022-10-15T00:29:23;165.50;;;116.78;;
26201;SDS011;13944;28.562;77.188;2022-10-15T00:31:50;173.00;;;117.57;;
26201;SDS011;13944;28.562;77.188;2022-10-15T00:34:16;165.05;;;116.82;;
26201;SDS011;13944;28.562;77.188;2022-10-15T00:36:43;157.35;;;115.85;;
26201;SDS011;13944;28.562;77.188;2022-10-15T00:39:09;177.65;;;116.90;;
26201;SDS011;13944;28.562;77.188;2022-10-15T00:41:41;172.70;;;116.35;;
26201;SDS011;13944;28.562;77.188;2022-10-15T00:47:06;179.40;;;115.22;;
26201;SDS011;13944;28.562;77.188;2022-10-15T00:49:38;166.82;;;113.15;;
26201;SDS011;13944;28.562;77.188;2022-10-15T00:52:06;171.38;;;113.60;;
26201;SDS011;13944;28.562;77.188;2022-10-15T00:54:35;166.77;;;112.50;;
26201;SDS011;13944;28.562;77.188;2022-10-15T00:57:03;157.63;;;111.75;;
26201;SDS011;13944;28.562;77.188;2022-10-15T00:59:30;171.35;;;112.43;;
26201;SDS011;13944;28.562;77.188;2022-10-15T01:01:57;160.63;;;112.70;;
26201;SDS011;13944;28.562;77.188;2022-10-15T01:04:25;169.10;;;109.55;;
26201;SDS011;13944;28.562;77.188;2022-10-15T01:06:52;210.90;;;112.95;;
26201;SDS011;13944;28.562;77.188;2022-10-15T01:09:18;187.73;;;112.22;;
26201;SDS011;13944;28.562;77.188;2022-10-15T01:11:46;163.02;;;110.85;;
26201;SDS011;13944;28.562;77.188;2022-10-15T01:14:17;176.10;;;112.45;;
26201;SDS011;13944;28.562;77.188;2022-10-15T01:16:49;173.75;;;113.45;;
26201;SDS011;13944;28.562;77.188;2022-10-15T01:22:00;164.57;;;112.30;;
26201;SDS011;13944;28.562;77.188;2022-10-15T01:24:40;172.25;;;112.60;;
26201;SDS011;13944;28.562;77.188;2022-10-15T01:27:16;185.80;;;116.13;;
26201;SDS011;13944;28.562;77.188;2022-10-15T01:32:25;163.90;;;111.85;;
26201;SDS011;13944;28.562;77.188;2022-10-15T01:35:01;188.90;;;113.80;;
26201;SDS011;13944;28.562;77.188;2022-10-15T01:38:04;209.05;;;116.10;;
26201;SDS011;13944;28.562;77.188;2022-10-15T01:40:25;172.48;;;115.07;;
26201;SDS011;13944;28.562;77.188;2022-10-15T01:42:55;169.65;;;113.03;;
26201;SDS011;13944;28.562;77.188;2022-10-15T01:45:33;190.23;;;114.82;;
26201;SDS011;13944;28.562;77.188;2022-10-15T01:48:02;165.88;;;114.82;;
26201;SDS011;13944;28.562;77.188;2022-10-15T01:50:31;167.45;;;113.00;;
26201;SDS011;13944;28.562;77.188;2022-10-15T01:52:58;163.05;;;113.65;;
26201;SDS011;13944;28.562;77.188;2022-10-15T01:55:26;182.15;;;111.47;;
26201;SDS011;13944;28.562;77.188;2022-10-15T01:57:53;184.13;;;115.60;;
26201;SDS011;13944;28.562;77.188;2022-10-15T02:00:20;172.02;;;114.47;;
26201;SDS011;13944;28.562;77.188;2022-10-15T02:02:47;177.65;;;114.90;;
26201;SDS011;13944;28.562;77.188;2022-10-15T02:05:18;175.73;;;113.82;;
26201;SDS011;13944;28.562;77.188;2022-10-15T02:13:49;167.35;;;115.03;;
26201;SDS011;13944;28.562;77.188;2022-10-15T02:19:13;168.88;;;113.63;;
26201;SDS011;13944;28.562;77.188;2022-10-15T02:21:14;155.52;;;112.13;;
26201;SDS011;13944;28.562;77.188;2022-10-15T02:23:52;164.45;;;109.88;;
26201;SDS011;13944;28.562;77.188;2022-10-15T02:26:21;169.27;;;110.20;;
26201;SDS011;13944;28.562;77.188;2022-10-15T02:28:52;195.70;;;117.10;;
26201;SDS011;13944;28.562;77.188;2022-10-15T02:31:19;165.43;;;114.30;;
26201;SDS011;13944;28.562;77.188;2022-10-15T02:33:47;168.93;;;115.93;;
26201;SDS011;13944;28.562;77.188;2022-10-15T02:36:14;163.00;;;111.43;;
26201;SDS011;13944;28.562;77.188;2022-10-15T02:38:42;162.45;;;114.50;;
26201;SDS011;13944;28.562;77.188;2022-10-15T02:41:08;152.27;;;109.07;;
26201;SDS011;13944;28.562;77.188;2022-10-15T02:43:36;157.13;;;110.45;;
26201;SDS011;13944;28.562;77.188;2022-10-15T02:46:03;162.23;;;112.88;;
26201;SDS011;13944;28.562;77.188;2022-10-15T02:48:30;175.38;;;116.72;;
26201;SDS011;13944;28.562;77.188;2022-10-15T02:50:57;167.30;;;113.75;;
26201;SDS011;13944;28.562;77.188;2022-10-15T02:53:23;156.40;;;112.55;;
26201;SDS011;13944;28.562;77.188;2022-10-15T02:55:49;162.30;;;114.43;;
26201;SDS011;13944;28.562;77.188;2022-10-15T02:58:16;151.82;;;111.07;;
26201;SDS011;13944;28.562;77.188;2022-10-15T03:00:42;167.75;;;115.55;;
26201;SDS011;13944;28.562;77.188;2022-10-15T03:03:09;165.10;;;113.75;;
26201;SDS011;13944;28.562;77.188;2022-10-15T03:05:36;163.13;;;116.03;;
26201;SDS011;13944;28.562;77.188;2022-10-15T03:08:02;157.48;;;113.50;;
26201;SDS011;13944;28.562;77.188;2022-10-15T03:10:29;166.35;;;115.70;;
26201;SDS011;13944;28.562;77.188;2022-10-15T03:13:00;173.50;;;119.78;;
26201;SDS011;13944;28.562;77.188;2022-10-15T03:15:27;162.40;;;114.13;;
26201;SDS011;13944;28.562;77.188;2022-10-15T03:17:54;167.63;;;118.97;;
26201;SDS011;13944;28.562;77.188;2022-10-15T03:20:20;170.55;;;118.40;;
26201;SDS011;13944;28.562;77.188;2022-10-15T03:22:47;167.25;;;117.15;;
26201;SDS011;13944;28.562;77.188;2022-10-15T03:25:14;155.15;;;115.22;;
26201;SDS011;13944;28.562;77.188;2022-10-15T03:27:40;165.93;;;114.68;;
26201;SDS011;13944;28.562;77.188;2022-10-15T03:30:07;169.30;;;118.72;;
26201;SDS011;13944;28.562;77.188;2022-10-15T03:32:34;152.48;;;113.95;;
26201;SDS011;13944;28.562;77.188;2022-10-15T03:35:00;156.98;;;113.95;;
26201;SDS011;13944;28.562;77.188;2022-10-15T03:37:27;166.77;;;117.90;;
26201;SDS011;13944;28.562;77.188;2022-10-15T03:39:54;157.30;;;110.68;;
26201;SDS011;13944;28.562;77.188;2022-10-15T03:42:20;166.98;;;114.43;;
26201;SDS011;13944;28.562;77.188;2022-10-15T03:44:47;166.68;;;119.47;;
26201;SDS011;13944;28.562;77.188;2022-10-15T03:47:13;162.70;;;118.22;;
26201;SDS011;13944;28.562;77.188;2022-10-15T03:49:40;171.32;;;119.20;;
26201;SDS011;13944;28.562;77.188;2022-10-15T03:52:06;174.63;;;118.22;;
26201;SDS011;13944;28.562;77.188;2022-10-15T03:54:33;176.68;;;118.50;;
26201;SDS011;13944;28.562;77.188;2022-10-15T03:56:59;167.60;;;118.85;;
26201;SDS011;13944;28.562;77.188;2022-10-15T03:59:25;169.23;;;120.10;;
26201;SDS011;13944;28.562;77.188;2022-10-15T04:01:52;187.40;;;119.70;;
26201;SDS011;13944;28.562;77.188;2022-10-15T04:04:18;157.32;;;113.32;;
26201;SDS011;13944;28.562;77.188;2022-10-15T04:06:45;157.65;;;114.90;;
26201;SDS011;13944;28.562;77.188;2022-10-15T04:09:12;157.32;;;118.10;;
26201;SDS011;13944;28.562;77.188;2022-10-15T04:11:39;169.15;;;119.05;;
26201;SDS011;13944;28.562;77.188;2022-10-15T04:14:09;167.80;;;118.55;;
26201;SDS011;13944;28.562;77.188;2022-10-15T04:16:35;162.00;;;113.57;;
26201;SDS011;13944;28.562;77.188;2022-10-15T04:19:02;164.10;;;114.93;;
26201;SDS011;13944;28.562;77.188;2022-10-15T04:21:28;154.25;;;109.15;;
26201;SDS011;13944;28.562;77.188;2022-10-15T04:23:55;150.18;;;107.25;;
26201;SDS011;13944;28.562;77.188;2022-10-15T04:26:21;146.13;;;105.35;;
26201;SDS011;13944;28.562;77.188;2022-10-15T04:28:48;143.63;;;101.20;;
26201;SDS011;13944;28.562;77.188;2022-10-15T04:31:14;142.60;;;99.63;;
26201;SDS011;13944;28.562;77.188;2022-10-15T04:33:46;141.32;;;98.97;;
26201;SDS011;13944;28.562;77.188;2022-10-15T04:36:13;135.45;;;98.72;;
26201;SDS011;13944;28.562;77.188;2022-10-15T04:38:39;143.25;;;98.97;;
26201;SDS011;13944;28.562;77.188;2022-10-15T04:41:07;123.13;;;93.57;;
26201;SDS011;13944;28.562;77.188;2022-10-15T04:43:35;132.77;;;92.43;;
26201;SDS011;13944;28.562;77.188;2022-10-15T04:46:02;122.15;;;90.93;;
26201;SDS011;13944;28.562;77.188;2022-10-15T04:48:30;154.77;;;98.50;;
26201;SDS011;13944;28.562;77.188;2022-10-15T04:51:04;129.73;;;94.60;;
26201;SDS011;13944;28.562;77.188;2022-10-15T04:53:30;124.68;;;90.32;;
26201;SDS011;13944;28.562;77.188;2022-10-15T04:56:01;119.03;;;87.53;;
26201;SDS011;13944;28.562;77.188;2022-10-15T04:58:29;130.88;;;92.05;;
26201;SDS011;13944;28.562;77.188;2022-10-15T05:00:58;125.88;;;88.72;;
26201;SDS011;13944;28.562;77.188;2022-10-15T05:03:25;120.38;;;87.38;;
26201;SDS011;13944;28.562;77.188;2022-10-15T05:05:51;107.60;;;81.18;;
26201;SDS011;13944;28.562;77.188;2022-10-15T05:08:18;115.22;;;78.07;;
26201;SDS011;13944;28.562;77.188;2022-10-15T05:10:44;102.90;;;76.03;;
26201;SDS011;13944;28.562;77.188;2022-10-15T05:13:11;100.45;;;72.72;;
26201;SDS011;13944;28.562;77.188;2022-10-15T05:15:37;100.15;;;70.85;;
26201;SDS011;13944;28.562;77.188;2022-10-15T05:18:04;98.10;;;69.47;;
26201;SDS011;13944;28.562;77.188;2022-10-15T05:20:30;101.50;;;68.93;;
26201;SDS011;13944;28.562;77.188;2022-10-15T05:22:56;105.10;;;69.82;;
26201;SDS011;13944;28.562;77.188;2022-10-15T05:25:23;97.00;;;66.70;;
26201;SDS011;13944;28.562;77.188;2022-10-15T05:27:49;96.13;;;67.30;;
26201;SDS011;13944;28.562;77.188;2022-10-15T05:30:16;90.70;;;66.07;;
26201;SDS011;13944;28.562;77.188;2022-10-15T05:32:42;95.70;;;63.80;;
26201;SDS011;13944;28.562;77.188;2022-10-15T05:35:09;94.40;;;63.42;;
26201;SDS011;13944;28.562;77.188;2022-10-15T05:37:35;94.75;;;63.95;;
26201;SDS011;13944;28.562;77.188;2022-10-15T05:40:02;99.57;;;60.25;;
26201;SDS011;13944;28.562;77.188;2022-10-15T05:42:28;95.32;;;60.85;;
26201;SDS011;13944;28.562;77.188;2022-10-15T05:44:55;87.63;;;60.25;;
26201;SDS011;13944;28.562;77.188;2022-10-15T05:47:22;87.25;;;58.70;;
26201;SDS011;13944;28.562;77.188;2022-10-15T05:49:48;95.85;;;58.40;;
26201;SDS011;13944;28.562;77.188;2022-10-15T05:52:15;88.55;;;57.42;;
26201;SDS011;13944;28.562;77.188;2022-10-15T05:54:41;81.80;;;57.25;;
26201;SDS011;13944;28.562;77.188;2022-10-15T05:57:08;91.65;;;60.85;;
26201;SDS011;13944;28.562;77.188;2022-10-15T05:59:34;84.60;;;54.97;;
26201;SDS011;13944;28.562;77.188;2022-10-15T06:02:01;80.85;;;53.92;;
26201;SDS011;13944;28.562;77.188;2022-10-15T06:04:27;92.20;;;54.08;;
26201;SDS011;13944;28.562;77.188;2022-10-15T06:06:54;77.25;;;51.00;;
26201;SDS011;13944;28.562;77.188;2022-10-15T06:09:20;91.18;;;55.00;;
26201;SDS011;13944;28.562;77.188;2022-10-15T06:11:47;88.07;;;54.80;;
26201;SDS011;13944;28.562;77.188;2022-10-15T06:14:13;84.78;;;57.42;;
26201;SDS011;13944;28.562;77.188;2022-10-15T06:16:41;77.50;;;52.97;;
26201;SDS011;13944;28.562;77.188;2022-10-15T06:19:07;85.07;;;53.67;;
26201;SDS011;13944;28.562;77.188;2022-10-15T06:21:34;84.38;;;51.50;;
26201;SDS011;13944;28.562;77.188;2022-10-15T06:24:00;82.55;;;51.78;;
26201;SDS011;13944;28.562;77.188;2022-10-15T06:26:27;71.70;;;49.97;;
26201;SDS011;13944;28.562;77.188;2022-10-15T06:28:53;75.50;;;48.80;;
26201;SDS011;13944;28.562;77.188;2022-10-15T06:31:20;67.55;;;48.45;;
26201;SDS011;13944;28.562;77.188;2022-10-15T06:33:46;75.22;;;51.47;;
26201;SDS011;13944;28.562;77.188;2022-10-15T06:36:13;78.13;;;49.72;;
26201;SDS011;13944;28.562;77.188;2022-10-15T06:38:39;64.15;;;47.30;;
26201;SDS011;13944;28.562;77.188;2022-10-15T06:41:08;76.60;;;48.08;;
26201;SDS011;13944;28.562;77.188;2022-10-15T06:43:35;67.97;;;46.17;;
26201;SDS011;13944;28.562;77.188;2022-10-15T06:46:02;68.60;;;46.17;;
26201;SDS011;13944;28.562;77.188;2022-10-15T06:48:29;75.68;;;48.20;;
26201;SDS011;13944;28.562;77.188;2022-10-15T06:50:57;64.80;;;45.22;;
26201;SDS011;13944;28.562;77.188;2022-10-15T06:53:24;69.85;;;46.05;;
26201;SDS011;13944;28.562;77.188;2022-10-15T06:55:50;64.53;;;44.95;;
26201;SDS011;13944;28.562;77.188;2022-10-15T06:58:17;67.25;;;45.13;;
26201;SDS011;13944;28.562;77.188;2022-10-15T07:00:43;68.28;;;43.75;;
26201;SDS011;13944;28.562;77.188;2022-10-15T07:03:09;91.32;;;44.05;;
26201;SDS011;13944;28.562;77.188;2022-10-15T07:05:36;70.28;;;41.10;;
26201;SDS011;13944;28.562;77.188;2022-10-15T07:08:03;71.38;;;41.67;;
26201;SDS011;13944;28.562;77.188;2022-10-15T07:10:30;60.25;;;39.75;;
26201;SDS011;13944;28.562;77.188;2022-10-15T07:12:59;62.78;;;38.92;;
26201;SDS011;13944;28.562;77.188;2022-10-15T07:15:27;73.50;;;39.83;;
26201;SDS011;13944;28.562;77.188;2022-10-15T07:17:54;64.03;;;38.78;;
26201;SDS011;13944;28.562;77.188;2022-10-15T07:20:25;56.75;;;38.70;;
26201;SDS011;13944;28.562;77.188;2022-10-15T07:22:59;67.28;;;38.58;;
26201;SDS011;13944;28.562;77.188;2022-10-15T07:25:26;61.88;;;39.63;;
26201;SDS011;13944;28.562;77.188;2022-10-15T07:27:53;70.07;;;39.47;;
26201;SDS011;13944;28.562;77.188;2022-10-15T07:30:20;74.43;;;39.72;;
26201;SDS011;13944;28.562;77.188;2022-10-15T07:32:46;83.70;;;40.72;;
26201;SDS011;13944;28.562;77.188;2022-10-15T07:35:13;56.22;;;36.67;;
26201;SDS011;13944;28.562;77.188;2022-10-15T07:37:40;70.88;;;40.15;;
26201;SDS011;13944;28.562;77.188;2022-10-15T07:40:06;58.97;;;39.13;;
26201;SDS011;13944;28.562;77.188;2022-10-15T07:42:33;65.10;;;38.88;;
26201;SDS011;13944;28.562;77.188;2022-10-15T07:44:59;57.38;;;37.92;;
26201;SDS011;13944;28.562;77.188;2022-10-15T07:47:26;57.42;;;38.20;;
26201;SDS011;13944;28.562;77.188;2022-10-15T07:49:52;54.88;;;40.17;;
26201;SDS011;13944;28.562;77.188;2022-10-15T07:52:19;53.42;;;39.00;;
26201;SDS011;13944;28.562;77.188;2022-10-15T07:54:45;52.50;;;38.35;;
26201;SDS011;13944;28.562;77.188;2022-10-15T07:57:12;62.95;;;39.38;;
26201;SDS011;13944;28.562;77.188;2022-10-15T07:59:38;70.88;;;39.58;;
26201;SDS011;13944;28.562;77.188;2022-10-15T08:02:05;58.67;;;38.72;;
26201;SDS011;13944;28.562;77.188;2022-10-15T08:04:32;54.78;;;38.42;;
26201;SDS011;13944;28.562;77.188;2022-10-15T08:06:59;54.10;;;35.58;;
26201;SDS011;13944;28.562;77.188;2022-10-15T08:09:25;61.90;;;36.95;;
26201;SDS011;13944;28.562;77.188;2022-10-15T08:11:52;66.60;;;39.80;;
26201;SDS011;13944;28.562;77.188;2022-10-15T08:14:18;62.50;;;37.55;;
26201;SDS011;13944;28.562;77.188;2022-10-15T08:16:45;60.00;;;38.80;;
26201;SDS011;13944;28.562;77.188;2022-10-15T08:19:11;61.63;;;37.38;;
26201;SDS011;13944;28.562;77.188;2022-10-15T08:21:42;57.53;;;35.78;;
26201;SDS011;13944;28.562;77.188;2022-10-15T08:24:08;73.43;;;37.60;;
26201;SDS011;13944;28.562;77.188;2022-10-15T08:26:35;60.03;;;38.15;;
26201;SDS011;13944;28.562;77.188;2022-10-15T08:29:02;58.33;;;36.47;;
26201;SDS011;13944;28.562;77.188;2022-10-15T08:31:28;57.00;;;37.17;;
26201;SDS011;13944;28.562;77.188;2022-10-15T08:33:58;57.55;;;35.45;;
26201;SDS011;13944;28.562;77.188;2022-10-15T08:36:24;56.97;;;34.97;;
26201;SDS011;13944;28.562;77.188;2022-10-15T08:38:51;54.97;;;36.08;;
26201;SDS011;13944;28.562;77.188;2022-10-15T08:44:03;102.00;;;36.63;;
26201;SDS011;13944;28.562;77.188;2022-10-15T08:46:33;81.53;;;37.25;;
26201;SDS011;13944;28.562;77.188;2022-10-15T08:49:00;62.05;;;37.28;;
26201;SDS011;13944;28.562;77.188;2022-10-15T08:51:50;57.60;;;36.67;;
26201;SDS011;13944;28.562;77.188;2022-10-15T08:54:15;56.72;;;36.03;;
26201;SDS011;13944;28.562;77.188;2022-10-15T08:56:43;61.13;;;35.50;;
26201;SDS011;13944;28.562;77.188;2022-10-15T09:01:43;73.03;;;36.90;;
26201;SDS011;13944;28.562;77.188;2022-10-15T09:04:23;63.67;;;34.13;;
26201;SDS011;13944;28.562;77.188;2022-10-15T09:06:56;65.80;;;36.45;;
26201;SDS011;13944;28.562;77.188;2022-10-15T09:12:31;53.05;;;33.83;;
26201;SDS011;13944;28.562;77.188;2022-10-15T09:15:01;71.20;;;35.47;;
26201;SDS011;13944;28.562;77.188;2022-10-15T09:17:28;48.03;;;32.10;;
26201;SDS011;13944;28.562;77.188;2022-10-15T09:19:56;56.22;;;32.08;;
26201;SDS011;13944;28.562;77.188;2022-10-15T09:22:24;60.10;;;32.33;;
26201;SDS011;13944;28.562;77.188;2022-10-15T09:24:52;49.97;;;31.63;;
26201;SDS011;13944;28.562;77.188;2022-10-15T09:27:34;58.92;;;31.23;;
26201;SDS011;13944;28.562;77.188;2022-10-15T09:32:47;44.55;;;29.88;;
26201;SDS011;13944;28.562;77.188;2022-10-15T09:35:36;55.92;;;30.35;;
26201;SDS011;13944;28.562;77.188;2022-10-15T09:43:19;52.38;;;31.63;;
26201;SDS011;13944;28.562;77.188;2022-10-15T09:45:51;50.90;;;31.33;;
26201;SDS011;13944;28.562;77.188;2022-10-15T09:48:18;52.47;;;29.80;;
26201;SDS011;13944;28.562;77.188;2022-10-15T09:54:08;44.22;;;25.38;;
26201;SDS011;13944;28.562;77.188;2022-10-15T09:58:42;47.95;;;25.88;;
26201;SDS011;13944;28.562;77.188;2022-10-15T10:01:18;41.42;;;25.50;;
26201;SDS011;13944;28.562;77.188;2022-10-15T10:03:44;48.50;;;26.48;;
26201;SDS011;13944;28.562;77.188;2022-10-15T10:06:12;48.47;;;27.10;;
26201;SDS011;13944;28.562;77.188;2022-10-15T10:09:00;48.60;;;28.15;;
26201;SDS011;13944;28.562;77.188;2022-10-15T10:11:26;54.35;;;29.65;;
26201;SDS011;13944;28.562;77.188;2022-10-15T10:13:53;51.53;;;29.77;;
26201;SDS011;13944;28.562;77.188;2022-10-15T10:16:20;76.97;;;32.67;;
26201;SDS011;13944;28.562;77.188;2022-10-15T10:19:29;59.25;;;30.58;;
26201;SDS011;13944;28.562;77.188;2022-10-15T10:21:37;68.07;;;31.30;;
26201;SDS011;13944;28.562;77.188;2022-10-15T10:24:19;84.28;;;33.63;;
26201;SDS011;13944;28.562;77.188;2022-10-15T10:26:47;77.13;;;32.55;;
26201;SDS011;13944;28.562;77.188;2022-10-15T10:29:18;81.63;;;35.00;;
26201;SDS011;13944;28.562;77.188;2022-10-15T10:31:45;57.85;;;32.47;;
26201;SDS011;13944;28.562;77.188;2022-10-15T10:34:15;66.75;;;32.60;;
26201;SDS011;13944;28.562;77.188;2022-10-15T10:36:42;48.90;;;30.45;;
26201;SDS011;13944;28.562;77.188;2022-10-15T10:39:27;66.15;;;32.65;;
26201;SDS011;13944;28.562;77.188;2022-10-15T10:41:58;53.15;;;32.45;;
26201;SDS011;13944;28.562;77.188;2022-10-15T10:44:26;66.82;;;35.72;;
26201;SDS011;13944;28.562;77.188;2022-10-15T10:49:36;88.00;;;34.55;;
26201;SDS011;13944;28.562;77.188;2022-10-15T10:52:03;74.05;;;32.55;;
26201;SDS011;13944;28.562;77.188;2022-10-15T10:54:30;71.82;;;34.35;;
26201;SDS011;13944;28.562;77.188;2022-10-15T10:56:57;75.45;;;34.30;;
26201;SDS011;13944;28.562;77.188;2022-10-15T10:59:36;73.30;;;33.38;;
26201;SDS011;13944;28.562;77.188;2022-10-15T11:02:07;73.10;;;33.33;;
26201;SDS011;13944;28.562;77.188;2022-10-15T11:04:35;66.75;;;33.72;;
26201;SDS011;13944;28.562;77.188;2022-10-15T11:07:09;83.90;;;35.63;;
26201;SDS011;13944;28.562;77.188;2022-10-15T11:17:20;83.78;;;34.65;;
26201;SDS011;13944;28.562;77.188;2022-10-15T11:19:51;119.00;;;37.13;;
26201;SDS011;13944;28.562;77.188;2022-10-15T11:22:42;102.07;;;36.85;;
26201;SDS011;13944;28.562;77.188;2022-10-15T11:25:28;116.32;;;37.58;;
26201;SDS011;13944;28.562;77.188;2022-10-15T11:28:07;109.32;;;36.38;;
26201;SDS011;13944;28.562;77.188;2022-10-15T11:30:48;97.00;;;35.00;;
26201;SDS011;13944;28.562;77.188;2022-10-15T11:33:21;90.95;;;34.83;;
26201;SDS011;13944;28.562;77.188;2022-10-15T11:38:49;78.93;;;33.55;;
26201;SDS011;13944;28.562;77.188;2022-10-15T11:41:27;96.88;;;36.55;;
26201;SDS011;13944;28.562;77.188;2022-10-15T11:49:24;97.82;;;38.67;;
26201;SDS011;13944;28.562;77.188;2022-10-15T11:56:54;108.10;;;37.17;;
26201;SDS011;13944;28.562;77.188;2022-10-15T12:01:55;120.85;;;40.65;;
26201;SDS011;13944;28.562;77.188;2022-10-15T12:04:28;97.97;;;39.83;;
26201;SDS011;13944;28.562;77.188;2022-10-15T12:06:56;101.53;;;39.90;;
26201;SDS011;13944;28.562;77.188;2022-10-15T12:09:29;92.05;;;40.72;;
26201;SDS011;13944;28.562;77.188;2022-10-15T12:12:02;89.75;;;42.50;;
26201;SDS011;13944;28.562;77.188;2022-10-15T12:14:33;87.00;;;39.83;;
26201;SDS011;13944;28.562;77.188;2022-10-15T12:19:36;105.00;;;43.38;;
26201;SDS011;13944;28.562;77.188;2022-10-15T12:22:06;110.72;;;43.00;;
26201;SDS011;13944;28.562;77.188;2022-10-15T12:29:40;120.45;;;46.10;;
26201;SDS011;13944;28.562;77.188;2022-10-15T12:32:20;98.28;;;46.85;;
26201;SDS011;13944;28.562;77.188;2022-10-15T12:34:49;105.35;;;48.17;;
26201;SDS011;13944;28.562;77.188;2022-10-15T12:37:20;99.10;;;47.33;;
26201;SDS011;13944;28.562;77.188;2022-10-15T12:39:53;97.47;;;48.25;;
26201;SDS011;13944;28.562;77.188;2022-10-15T12:42:21;122.30;;;51.03;;
26201;SDS011;13944;28.562;77.188;2022-10-15T12:44:51;110.38;;;51.58;;
26201;SDS011;13944;28.562;77.188;2022-10-15T12:50:04;110.55;;;50.90;;
26201;SDS011;13944;28.562;77.188;2022-10-15T12:55:33;115.18;;;53.95;;
26201;SDS011;13944;28.562;77.188;2022-10-15T13:00:45;129.45;;;53.80;;
26201;SDS011;13944;28.562;77.188;2022-10-15T13:05:41;113.28;;;51.58;;
26201;SDS011;13944;28.562;77.188;2022-10-15T13:08:41;97.10;;;53.22;;
26201;SDS011;13944;28.562;77.188;2022-10-15T13:11:01;94.38;;;58.10;;
26201;SDS011;13944;28.562;77.188;2022-10-15T13:13:28;107.32;;;58.70;;
26201;SDS011;13944;28.562;77.188;2022-10-15T13:15:57;106.13;;;59.25;;
26201;SDS011;13944;28.562;77.188;2022-10-15T13:18:24;122.68;;;64.60;;
26201;SDS011;13944;28.562;77.188;2022-10-15T13:20:53;133.50;;;64.55;;
26201;SDS011;13944;28.562;77.188;2022-10-15T13:23:22;131.30;;;65.60;;
26201;SDS011;13944;28.562;77.188;2022-10-15T13:25:50;145.27;;;64.95;;
26201;SDS011;13944;28.562;77.188;2022-10-15T13:28:30;118.72;;;64.22;;
26201;SDS011;13944;28.562;77.188;2022-10-15T13:30:58;117.80;;;63.80;;
26201;SDS011;13944;28.562;77.188;2022-10-15T13:33:25;139.55;;;66.95;;
26201;SDS011;13944;28.562;77.188;2022-10-15T13:35:52;104.78;;;64.55;;
26201;SDS011;13944;28.562;77.188;2022-10-15T13:38:20;120.90;;;64.95;;
26201;SDS011;13944;28.562;77.188;2022-10-15T13:40:47;122.32;;;65.25;;
26201;SDS011;13944;28.562;77.188;2022-10-15T13:43:18;104.22;;;64.82;;
26201;SDS011;13944;28.562;77.188;2022-10-15T13:45:58;121.53;;;66.90;;
26201;SDS011;13944;28.562;77.188;2022-10-15T13:48:25;115.40;;;63.03;;
26201;SDS011;13944;28.562;77.188;2022-10-15T13:50:56;123.25;;;64.28;;
26201;SDS011;13944;28.562;77.188;2022-10-15T13:53:36;113.13;;;63.55;;
26201;SDS011;13944;28.562;77.188;2022-10-15T13:56:19;133.25;;;69.05;;
26201;SDS011;13944;28.562;77.188;2022-10-15T13:58:47;120.47;;;64.43;;
26201;SDS011;13944;28.562;77.188;2022-10-15T14:06:21;120.72;;;67.60;;
26201;SDS011;13944;28.562;77.188;2022-10-15T14:08:49;126.47;;;67.20;;
26201;SDS011;13944;28.562;77.188;2022-10-15T14:11:16;122.13;;;67.35;;
26201;SDS011;13944;28.562;77.188;2022-10-15T14:13:56;134.70;;;71.00;;
26201;SDS011;13944;28.562;77.188;2022-10-15T14:16:32;139.57;;;78.75;;
26201;SDS011;13944;28.562;77.188;2022-10-15T14:21:34;151.88;;;87.55;;
26201;SDS011;13944;28.562;77.188;2022-10-15T14:24:05;142.45;;;82.43;;
26201;SDS011;13944;28.562;77.188;2022-10-15T14:26:32;153.68;;;83.57;;
26201;SDS011;13944;28.562;77.188;2022-10-15T14:28:59;150.20;;;86.30;;
26201;SDS011;13944;28.562;77.188;2022-10-15T14:31:31;153.60;;;89.07;;
26201;SDS011;13944;28.562;77.188;2022-10-15T14:33:58;175.30;;;92.40;;
26201;SDS011;13944;28.562;77.188;2022-10-15T14:36:29;146.30;;;90.65;;
26201;SDS011;13944;28.562;77.188;2022-10-15T14:39:15;157.48;;;90.50;;
26201;SDS011;13944;28.562;77.188;2022-10-15T14:41:53;147.18;;;87.90;;
26201;SDS011;13944;28.562;77.188;2022-10-15T14:44:20;137.70;;;86.45;;
26201;SDS011;13944;28.562;77.188;2022-10-15T14:46:47;131.52;;;85.38;;
26201;SDS011;13944;28.562;77.188;2022-10-15T14:49:30;143.00;;;87.30;;
26201;SDS011;13944;28.562;77.188;2022-10-15T14:51:59;150.00;;;91.20;;
26201;SDS011;13944;28.562;77.188;2022-10-15T14:54:30;161.90;;;92.15;;
26201;SDS011;13944;28.562;77.188;2022-10-15T14:56:58;170.07;;;94.10;;
26201;SDS011;13944;28.562;77.188;2022-10-15T14:59:27;172.50;;;93.40;;
26201;SDS011;13944;28.562;77.188;2022-10-15T15:01:56;150.20;;;89.65;;
26201;SDS011;13944;28.562;77.188;2022-10-15T15:06:59;155.55;;;89.20;;
26201;SDS011;13944;28.562;77.188;2022-10-15T15:09:26;158.68;;;90.47;;
26201;SDS011;13944;28.562;77.188;2022-10-15T15:11:52;170.63;;;92.65;;
26201;SDS011;13944;28.562;77.188;2022-10-15T15:14:25;153.40;;;91.57;;
26201;SDS011;13944;28.562;77.188;2022-10-15T15:16:51;166.88;;;90.40;;
26201;SDS011;13944;28.562;77.188;2022-10-15T15:19:18;160.95;;;89.03;;
26201;SDS011;13944;28.562;77.188;2022-10-15T15:21:44;155.85;;;92.38;;
26201;SDS011;13944;28.562;77.188;2022-10-15T15:24:11;171.80;;;89.18;;
26201;SDS011;13944;28.562;77.188;2022-10-15T15:26:38;158.55;;;88.88;;
26201;SDS011;13944;28.562;77.188;2022-10-15T15:29:09;153.75;;;87.15;;
26201;SDS011;13944;28.562;77.188;2022-10-15T15:31:39;149.73;;;84.07;;
26201;SDS011;13944;28.562;77.188;2022-10-15T15:34:06;133.15;;;85.45;;
26201;SDS011;13944;28.562;77.188;2022-10-15T15:36:32;143.27;;;83.28;;
26201;SDS011;13944;28.562;77.188;2022-10-15T15:38:59;139.05;;;85.15;;
26201;SDS011;13944;28.562;77.188;2022-10-15T15:41:25;145.77;;;80.88;;